x

Columbia River Bar - 20nm West Of Columbia River Mouth (46029) Wave Buoy

1:50 - Mon 23rd Jan 2017 All times are PST. -8 hours from GMT.

  • Sig Wave height 11.2ft
  • Peak Period 14s
  • Average Period 9s
  • Wind
    4mph, 7mph gusts
  • Sea Temp 49°f
  • Luft Temp 48°f
  • Sea Pressure 1011.5mb
  • Columbia River Bar - 20nm West Of Columbia River Mouth
  • Columbia River Bar - 20nm West Of Columbia River Mouth

More Historic Weather Station data

Upgrade to MSW Pro to gain access to the past 30 days of data for over 8000 Wavebouys and Weather Stations around the globe.

Join Pro

Comparision Forecast

View Surf forecast
   
Mo 01/23 1:50 11ft 14s 9s 4 7 mph 1011.5mb 49f 48f
12:50 11ft 11s 9s 2 4 mph 1011mb 49f 48f
11:50 11ft 11s 9s 4 7 mph 1010.5mb 49f 47f
10:50 11ft 10s 8s 11 16 mph 1009.8mb 49f 46f
9:50 12.5ft 11s 9s 11 13 mph 1009mb 49f 47f
8:50 11.5ft 11s 8s 13 18 mph 1008.1mb 49f 46f
7:50 12.5ft 11s 9s 16 20 mph 1006.6mb 49f 45f
6:50 11.5ft 11s 8s 16 20 mph 1005.6mb 49f 45f
4:50 12.5ft 11s 8s 13 16 mph 1003.8mb 49f 46f
3:50 14ft 11s 9s 13 18 mph 1003.1mb 49f 47f
2:50 14ft 12s 9s 16 20 mph 1002.5mb 49f 48f
1:50 15ft 11s 9s 18 22 mph 1001.5mb 49f 48f
12:50 13.5ft 13s 9s 18 22 mph 1001.1mb 49f 48f
So 01/22 11:50 12.5ft 12s 9s 20 25 mph 1000.7mb 49f 47f
10:50 13.5ft 13s 9s 22 27 mph 1000.3mb 49f 47f
9:50 13.5ft 13s 9s 25 29 mph 999.6mb 49f 47f
8:50 14.5ft 13s 9s 22 29 mph 999mb 49f 47f
7:50 15ft 13s 9s 20 25 mph 999mb 49f 46f
6:50 16.5ft 14s 9s 27 34 mph 998.5mb 50f 45f
5:50 15ft 14s 9s 25 36 mph 998.2mb 50f 44f
4:50 15.5ft 13s 9s 27 36 mph 997.8mb 50f 47f
3:50 18.5ft 14s 10s 29 36 mph 997.6mb 50f 46f
2:50 19ft 14s 10s 27 31 mph 997.3mb 50f 47f
1:50 19ft 13s 9s 29 40 mph 996.9mb 50f 44f
12:50 18.5ft 11s 9s 27 34 mph 997mb 50f 46f
11:50 14ft 10s 8s 29 45 mph 995.9mb 50f 46f
10:50 11.5ft 12s 8s 27 34 mph 996mb 50f 49f
9:50 11ft 14s 8s 25 36 mph 995.1mb 49f 46f
8:50 10.5ft 14s 8s 29 36 mph 993.9mb 49f 46f
7:50 10.5ft 14s 8s 31 36 mph 992.7mb 49f 47f
6:50 10.5ft 15s 8s 34 43 mph 992.1mb 49f 47f
5:50 11.5ft 15s 8s 29 38 mph 992.2mb 50f 46f
4:50 13ft 16s 9s 29 38 mph 993.2mb 50f 46f
3:50 12ft 15s 9s 29 38 mph 993.4mb 50f 46f
2:50 13.5ft 15s 9s 29 36 mph 994.6mb 50f 45f
1:50 14.5ft 15s 10s 27 34 mph 996.4mb 50f 45f
12:50 13.5ft 16s 9s 25 29 mph 998mb 50f 45f
Sa 01/21 11:50 15ft 16s 10s 20 25 mph 998.9mb 50f 46f
10:50 15ft 16s 10s 20 29 mph 999.2mb 50f 46f
9:50 14.5ft 15s 10s 22 29 mph 999.1mb 50f 46f
8:50 15ft 16s 11s 20 27 mph 999mb 50f 46f
7:50 17.5ft 17s 11s 18 27 mph 998.9mb 49f 47f
6:50 17ft 15s 11s 20 25 mph 998.5mb 49f 47f
5:50 16ft 17s 11s 18 25 mph 997.8mb 49f 47f
4:50 16.5ft 17s 12s 20 22 mph 996.9mb 49f 47f
3:50 17.5ft 16s 12s 16 20 mph 996.2mb 49f 48f
2:50 16ft 17s 11s 18 22 mph 995.5mb 49f 48f
1:50 15ft 17s 11s 16 20 mph 994.7mb 49f 48f
12:50 15ft 15s 11s 16 22 mph 993.9mb 49f 48f
11:50 16.5ft 19s 11s 18 27 mph 993.6mb 49f 46f
10:50 20.5ft 17s 12s 20 25 mph 993.3mb 49f 44f
9:50 17ft 19s 12s 22 27 mph 992.4mb 50f 45f
8:50 16.5ft 19s 12s 20 27 mph 991.5mb 50f 45f
7:50 18.5ft 19s 12s 20 25 mph 990.6mb 49f 45f
6:50 19.5ft 19s 12s 20 27 mph 989.9mb 49f 45f
5:50 15.5ft 17s 11s 20 27 mph 989.5mb 49f 45f
4:50 17ft 17s 12s 20 25 mph 989mb 49f 45f
3:50 15ft 19s 11s 20 25 mph 988.8mb 49f 46f
2:50 13ft 19s 10s 18 22 mph 988.6mb 49f 46f
1:50 11.5ft 19s 9s 20 25 mph 988.1mb 49f 46f
12:50 11ft 15s 9s 20 25 mph 987.8mb 49f 46f
Fr 01/20 11:50 9.5ft 14s 8s 18 22 mph 987.4mb 49f 46f
10:50 10ft 15s 8s 20 25 mph 986.9mb 49f 46f
9:50 10ft 16s 8s 20 25 mph 986.6mb 49f 46f
8:50 10ft 16s 8s 22 27 mph 986.1mb 49f 46f
7:50 11ft 16s 8s 22 29 mph 985.6mb 49f 45f
6:50 11.5ft 15s 8s 22 31 mph 985.2mb 49f 45f
5:50 11ft 16s 8s 22 29 mph 984.8mb 50f 46f
4:50 11ft 15s 8s 25 29 mph 984.4mb 50f 46f
3:50 11.5ft 15s 8s 22 29 mph 984.2mb 50f 46f
2:50 12ft 16s 9s 22 27 mph 983.8mb 50f 47f
1:50 13ft 15s 9s 22 29 mph 983.5mb 49f 47f
12:50 15ft 16s 10s 25 29 mph 983.4mb 49f 47f
11:50 13ft 16s 9s 25 29 mph 983.8mb 49f 47f
10:50 14ft 16s 10s 25 31 mph 984mb 49f 46f
9:50 15ft 16s 10s 22 29 mph 984.2mb 49f 47f
8:50 15ft 16s 10s 25 31 mph 983.8mb 49f 47f
7:50 15ft 16s 10s 27 34 mph 983.9mb 49f 47f
6:50 15.5ft 16s 10s 25 34 mph 984.6mb 49f 48f
5:50 12.5ft 13s 9s 25 34 mph 985.7mb 49f 47f
4:50 13ft 16s 9s 22 34 mph 987.1mb 49f 47f
3:50 15ft 16s 9s 25 34 mph 988.3mb 49f 47f
2:50 15ft 14s 9s 25 31 mph 989.7mb 50f 46f
1:50 13.5ft 15s 9s 22 31 mph 991.1mb 49f 46f
12:50 12ft 15s 8s 25 31 mph 992.2mb 49f 46f
Do 01/19 11:50 15ft 15s 9s 22 27 mph 993.3mb 49f 46f